Time;durP1;ratioP1;P1;durP2;ratioP2;P2;SDS_P1;SDS_P2;PMS_P1;PMS_P2;Temp;Humidity;BMP_temperature;BMP_pressure;BME280_temperature;BME280_humidity;BME280_pressure;Samples;Min_cycle;Max_cycle;Signal;HPM_P1;HPM_P2
2023/06/29 00:02:24;;;;;;;5.07;2.88;;;13.80;99.90;;;;;;4984477;28;20088;-84
2023/06/29 00:04:56;;;;;;;5.88;2.70;;;13.80;99.90;;;;;;4988372;28;20117;-85
2023/06/29 00:07:25;;;;;;;7.35;3.00;;;13.90;99.90;;;;;;4989586;28;20105;-84
2023/06/29 00:09:52;;;;;;;4.88;2.85;;;13.90;99.90;;;;;;4987997;28;20022;-85
2023/06/29 00:12:17;;;;;;;4.85;3.08;;;13.90;99.90;;;;;;4990134;28;20054;-83
2023/06/29 00:14:43;;;;;;;5.75;3.03;;;13.90;99.90;;;;;;4988731;28;20123;-86
2023/06/29 00:17:08;;;;;;;7.25;3.53;;;13.90;99.90;;;;;;4987311;28;20026;-83
2023/06/29 00:19:35;;;;;;;10.05;3.38;;;13.90;99.90;;;;;;4988345;28;20033;-82
2023/06/29 00:22:01;;;;;;;6.18;2.90;;;13.90;99.90;;;;;;4988557;28;20422;-84
2023/06/29 00:24:29;;;;;;;7.43;3.00;;;13.90;99.90;;;;;;4988865;28;20033;-84
2023/06/29 00:26:54;;;;;;;6.35;2.90;;;13.90;99.90;;;;;;4989476;28;20041;-86
2023/06/29 00:29:20;;;;;;;4.43;2.67;;;13.90;99.90;;;;;;4988426;28;20034;-82
2023/06/29 00:31:45;;;;;;;6.45;3.28;;;13.90;99.90;;;;;;4987094;28;20133;-84
2023/06/29 00:34:11;;;;;;;5.90;3.00;;;13.90;99.90;;;;;;4987844;28;20038;-83
2023/06/29 00:36:36;;;;;;;4.68;3.03;;;14.00;99.90;;;;;;4988162;28;20101;-82
2023/06/29 00:39:03;;;;;;;4.47;2.85;;;13.90;99.90;;;;;;4989640;28;20034;-84
2023/06/29 00:41:28;;;;;;;8.18;3.53;;;13.90;99.90;;;;;;4986492;28;20034;-82
2023/06/29 00:43:55;;;;;;;5.95;3.05;;;13.90;99.90;;;;;;4987500;28;20041;-83
2023/06/29 00:46:20;;;;;;;8.20;3.20;;;13.90;99.90;;;;;;4986558;28;20026;-84
2023/06/29 00:48:47;;;;;;;5.43;2.85;;;13.90;99.90;;;;;;4986990;28;20029;-82
2023/06/29 00:51:15;;;;;;;5.40;3.05;;;13.90;99.90;;;;;;4988316;28;20034;-85
2023/06/29 00:53:42;;;;;;;5.00;2.80;;;13.90;99.90;;;;;;4987790;28;20050;-85
2023/06/29 00:56:07;;;;;;;6.55;3.20;;;13.80;99.90;;;;;;4986328;28;20042;-82
2023/06/29 00:58:33;;;;;;;5.85;3.03;;;13.80;99.90;;;;;;4988237;28;20049;-83
2023/06/29 01:00:58;;;;;;;5.82;3.20;;;13.80;99.90;;;;;;4987423;28;20022;-85
2023/06/29 01:03:24;;;;;;;7.43;3.03;;;13.80;99.90;;;;;;4987270;28;20896;-84
2023/06/29 01:05:55;;;;;;;7.13;3.20;;;13.80;99.90;;;;;;4988295;28;20034;-82
2023/06/29 01:08:27;;;;;;;5.05;3.00;;;13.70;99.90;;;;;;4987643;28;20031;-83
2023/06/29 01:10:54;;;;;;;6.28;2.97;;;13.70;99.90;;;;;;4985922;28;20057;-85
2023/06/29 01:13:20;;;;;;;3.33;2.83;;;13.70;99.90;;;;;;4986649;28;20050;-82
2023/06/29 01:15:47;;;;;;;4.47;2.75;;;13.70;99.90;;;;;;4986877;28;20081;-84
2023/06/29 01:18:14;;;;;;;6.85;3.10;;;13.60;99.90;;;;;;4986693;28;20113;-82
2023/06/29 01:20:40;;;;;;;6.32;3.17;;;13.60;99.90;;;;;;4984825;28;20042;-82
2023/06/29 01:23:24;;;;;;;5.03;3.38;;;13.50;99.90;;;;;;4984916;28;20034;-83
2023/06/29 01:25:50;;;;;;;4.03;3.17;;;13.50;99.90;;;;;;4985837;28;20287;-83
2023/06/29 01:28:16;;;;;;;4.22;2.85;;;13.40;99.90;;;;;;4986604;28;20646;-83
2023/06/29 01:30:48;;;;;;;6.50;3.00;;;13.40;99.90;;;;;;4986689;28;20022;-82
2023/06/29 01:33:17;;;;;;;5.72;3.72;;;13.40;99.90;;;;;;4987383;28;20097;-83
2023/06/29 01:35:44;;;;;;;6.63;3.35;;;13.30;99.90;;;;;;4985744;28;20054;-83
2023/06/29 01:38:15;;;;;;;6.75;3.10;;;13.30;99.90;;;;;;4987942;28;20604;-82
2023/06/29 01:40:43;;;;;;;7.78;3.03;;;13.30;99.90;;;;;;4986992;28;20084;-84
2023/06/29 01:43:09;;;;;;;4.90;3.10;;;13.30;99.90;;;;;;4986268;28;20026;-83
2023/06/29 01:45:36;;;;;;;4.38;3.40;;;13.20;99.90;;;;;;4985321;28;21448;-82
2023/06/29 01:48:01;;;;;;;5.45;3.50;;;13.20;99.90;;;;;;4986031;28;20041;-85
2023/06/29 01:50:27;;;;;;;5.05;3.25;;;13.20;99.90;;;;;;4986936;28;20888;-84
2023/06/29 01:52:53;;;;;;;9.75;4.18;;;13.20;99.90;;;;;;4985838;28;20053;-85
2023/06/29 01:55:20;;;;;;;7.97;3.33;;;13.10;99.90;;;;;;4986124;28;20038;-83
2023/06/29 01:57:46;;;;;;;4.93;3.15;;;13.10;99.90;;;;;;4984314;28;20030;-84
2023/06/29 02:00:12;;;;;;;6.45;3.17;;;13.10;99.90;;;;;;4985868;28;20088;-84
2023/06/29 02:02:37;;;;;;;6.20;3.00;;;13.10;99.90;;;;;;4982487;28;20039;-85
2023/06/29 02:05:03;;;;;;;5.68;3.25;;;13.10;99.90;;;;;;4985646;28;20053;-83
2023/06/29 02:07:29;;;;;;;6.55;3.17;;;13.10;99.90;;;;;;4985910;28;20521;-83
2023/06/29 02:09:55;;;;;;;7.97;3.45;;;13.00;99.90;;;;;;4984637;28;20117;-82
2023/06/29 02:12:20;;;;;;;5.63;3.55;;;13.00;99.90;;;;;;4984509;28;20157;-85
2023/06/29 02:14:46;;;;;;;7.25;3.75;;;13.00;99.90;;;;;;4984182;28;20074;-89
2023/06/29 02:17:11;;;;;;;5.15;3.30;;;13.00;99.90;;;;;;4983609;28;21140;-83
2023/06/29 02:19:37;;;;;;;5.90;3.17;;;13.00;99.90;;;;;;4983122;28;20117;-84
2023/06/29 02:22:03;;;;;;;5.20;3.30;;;13.00;99.90;;;;;;4985553;28;20037;-83
2023/06/29 02:24:28;;;;;;;5.10;3.10;;;12.90;99.90;;;;;;4984606;28;20038;-84
2023/06/29 02:26:54;;;;;;;5.13;3.33;;;12.90;99.90;;;;;;4986235;28;20030;-83
2023/06/29 02:29:19;;;;;;;5.90;3.47;;;12.90;99.90;;;;;;4986118;28;20058;-82
2023/06/29 02:31:45;;;;;;;6.70;3.70;;;12.90;99.90;;;;;;4984141;28;20046;-84
2023/06/29 02:34:10;;;;;;;6.13;3.58;;;12.90;99.90;;;;;;4983928;28;20038;-83
2023/06/29 02:36:36;;;;;;;6.53;3.42;;;12.80;99.90;;;;;;4983194;28;20027;-82
2023/06/29 02:39:02;;;;;;;6.10;3.17;;;12.80;99.90;;;;;;4983743;28;20038;-83
2023/06/29 02:41:27;;;;;;;7.63;3.70;;;12.80;99.90;;;;;;4984456;28;20658;-85
2023/06/29 02:43:53;;;;;;;5.63;3.70;;;12.70;99.90;;;;;;4983544;28;20066;-85
2023/06/29 02:46:19;;;;;;;5.35;3.33;;;12.70;99.90;;;;;;4984809;28;20026;-81
2023/06/29 02:48:44;;;;;;;6.15;3.55;;;12.70;99.90;;;;;;4984474;28;20069;-84
2023/06/29 02:51:11;;;;;;;4.63;3.30;;;12.70;99.90;;;;;;4984456;28;20038;-87
2023/06/29 02:53:37;;;;;;;7.20;3.90;;;12.70;99.90;;;;;;4982813;28;20046;-82
2023/06/29 02:56:03;;;;;;;7.57;3.67;;;12.70;99.90;;;;;;4984500;28;20034;-83
2023/06/29 02:58:28;;;;;;;7.10;3.50;;;12.70;99.90;;;;;;4983387;28;20038;-83
2023/06/29 03:00:54;;;;;;;6.50;3.75;;;12.60;99.90;;;;;;4982531;28;20053;-83
2023/06/29 03:03:20;;;;;;;5.18;3.53;;;12.60;99.90;;;;;;4982925;28;20054;-85
2023/06/29 03:05:45;;;;;;;5.03;3.70;;;12.60;99.90;;;;;;4982961;28;20106;-82
2023/06/29 03:08:11;;;;;;;7.97;3.70;;;12.60;99.90;;;;;;4981717;28;20030;-84
2023/06/29 03:10:36;;;;;;;7.45;3.75;;;12.60;99.90;;;;;;4980829;28;20042;-84
2023/06/29 03:13:02;;;;;;;6.78;3.40;;;12.50;99.90;;;;;;4978657;28;20451;-83
2023/06/29 03:15:27;;;;;;;5.75;3.95;;;12.50;99.90;;;;;;4980787;28;20601;-85
2023/06/29 03:17:53;;;;;;;9.30;3.60;;;12.50;99.90;;;;;;4985430;28;20034;-82
2023/06/29 03:20:19;;;;;;;6.35;3.40;;;12.50;99.90;;;;;;4985269;28;20030;-84
2023/06/29 03:22:44;;;;;;;6.93;3.38;;;12.50;99.90;;;;;;4981223;28;20165;-86
2023/06/29 03:25:12;;;;;;;7.78;3.50;;;12.50;99.90;;;;;;4983998;28;20030;-87
2023/06/29 03:27:38;;;;;;;7.18;3.30;;;12.50;99.90;;;;;;4985640;28;20045;-85
2023/06/29 03:30:05;;;;;;;5.10;3.80;;;12.50;99.90;;;;;;4985426;28;20037;-84
2023/06/29 03:32:30;;;;;;;5.40;3.78;;;12.50;99.90;;;;;;4983870;28;20108;-88
2023/06/29 03:34:56;;;;;;;6.65;3.60;;;12.50;99.90;;;;;;4983943;28;20169;-84
2023/06/29 03:37:21;;;;;;;5.63;3.53;;;12.50;99.90;;;;;;4983976;28;20136;-86
2023/06/29 03:39:47;;;;;;;5.88;3.60;;;12.40;99.90;;;;;;4984036;28;20038;-82
2023/06/29 03:42:12;;;;;;;7.43;3.60;;;12.50;99.90;;;;;;4983031;28;20030;-80
2023/06/29 03:44:39;;;;;;;5.38;3.28;;;12.50;99.90;;;;;;4980524;28;20030;-84
2023/06/29 03:47:06;;;;;;;7.32;3.80;;;12.50;99.90;;;;;;4981412;28;20038;-82
2023/06/29 03:49:32;;;;;;;5.10;3.50;;;12.50;99.90;;;;;;4981142;28;20521;-80
2023/06/29 03:51:57;;;;;;;6.70;3.60;;;12.50;99.90;;;;;;4981904;28;20039;-80
2023/06/29 03:54:23;;;;;;;5.55;3.70;;;12.50;99.90;;;;;;4981231;28;20056;-83
2023/06/29 03:56:48;;;;;;;6.25;3.80;;;12.50;99.90;;;;;;4980687;28;20105;-80
2023/06/29 03:59:14;;;;;;;5.97;3.90;;;12.50;99.90;;;;;;4981415;28;20041;-81
2023/06/29 04:01:39;;;;;;;7.07;3.75;;;12.50;99.90;;;;;;4981426;28;20028;-82
2023/06/29 04:04:05;;;;;;;6.95;3.95;;;12.60;99.90;;;;;;4980365;28;20034;-83
2023/06/29 04:06:30;;;;;;;5.85;3.58;;;12.60;99.90;;;;;;4982689;28;20026;-87
2023/06/29 04:08:56;;;;;;;7.68;3.58;;;12.70;99.90;;;;;;4981026;28;20035;-83
2023/06/29 04:11:21;;;;;;;4.95;3.40;;;12.70;99.90;;;;;;4999711;23;20152;-81
2023/06/29 04:13:47;;;;;;;4.97;3.63;;;12.70;99.90;;;;;;4986620;28;20060;-81
2023/06/29 04:16:13;;;;;;;7.03;3.65;;;12.70;99.90;;;;;;4981983;28;20465;-81
2023/06/29 04:18:39;;;;;;;6.03;3.60;;;12.80;99.90;;;;;;4984257;28;20031;-81
2023/06/29 04:21:04;;;;;;;5.70;3.35;;;12.80;99.90;;;;;;4983908;28;20054;-81
2023/06/29 04:23:30;;;;;;;6.38;3.40;;;12.90;99.90;;;;;;4982059;28;20558;-82
2023/06/29 04:25:55;;;;;;;7.57;3.00;;;12.90;99.90;;;;;;4983372;28;20607;-81
2023/06/29 04:28:21;;;;;;;9.30;3.45;;;13.00;99.90;;;;;;4981816;28;20034;-81
2023/06/29 04:30:47;;;;;;;6.38;3.53;;;13.00;99.90;;;;;;4964462;28;20073;-80
2023/06/29 04:33:14;;;;;;;7.55;3.78;;;13.10;99.90;;;;;;4981067;28;20035;-81
2023/06/29 04:35:44;;;;;;;5.00;3.25;;;13.20;99.90;;;;;;4982394;28;20042;-80
2023/06/29 04:38:10;;;;;;;6.95;3.38;;;13.30;99.90;;;;;;4984913;28;20041;-80
2023/06/29 04:40:39;;;;;;;5.32;3.33;;;13.40;99.90;;;;;;4985174;28;20030;-81
2023/06/29 04:43:06;;;;;;;8.48;3.30;;;13.50;99.90;;;;;;4982573;28;20037;-81
2023/06/29 04:45:32;;;;;;;4.32;3.38;;;13.50;99.90;;;;;;4963761;28;20131;-80
2023/06/29 04:47:59;;;;;;;6.25;3.30;;;13.70;99.90;;;;;;4983516;28;20030;-82
2023/06/29 04:50:25;;;;;;;5.03;3.22;;;13.70;99.90;;;;;;4967112;28;20038;-82
2023/06/29 04:52:55;;;;;;;6.53;2.95;;;13.90;99.90;;;;;;4965861;28;20027;-81
2023/06/29 04:55:21;;;;;;;5.72;3.42;;;14.00;99.90;;;;;;4986043;28;20046;-81
2023/06/29 04:57:47;;;;;;;8.88;3.20;;;14.00;99.90;;;;;;4985281;28;20027;-82
2023/06/29 05:00:14;;;;;;;5.68;2.80;;;14.10;99.90;;;;;;4985620;28;20042;-82
2023/06/29 05:02:40;;;;;;;6.47;3.00;;;14.20;99.90;;;;;;4978681;28;20057;-83
2023/06/29 05:05:06;;;;;;;7.43;3.45;;;14.30;99.90;;;;;;4985931;28;20045;-80
2023/06/29 05:07:31;;;;;;;5.93;3.05;;;14.40;99.90;;;;;;4982499;28;20116;-81
2023/06/29 05:09:58;;;;;;;6.28;3.10;;;14.50;99.90;;;;;;4987187;28;20102;-83
2023/06/29 05:12:24;;;;;;;4.63;2.63;;;14.70;99.90;;;;;;4986169;28;20039;-85
2023/06/29 05:14:49;;;;;;;9.90;3.10;;;14.80;99.90;;;;;;4968496;28;20097;-84
2023/06/29 05:17:15;;;;;;;5.32;3.10;;;14.90;99.90;;;;;;4986185;28;20030;-84
2023/06/29 05:19:41;;;;;;;9.25;3.10;;;15.00;99.90;;;;;;4986590;28;20038;-83
2023/06/29 05:22:06;;;;;;;4.97;2.55;;;15.10;99.90;;;;;;4984004;28;20031;-84
2023/06/29 05:24:32;;;;;;;4.00;2.50;;;15.20;99.90;;;;;;4982753;28;20037;-83
2023/06/29 05:26:57;;;;;;;5.15;2.53;;;15.30;99.90;;;;;;4988701;28;20050;-85
2023/06/29 05:29:24;;;;;;;8.07;2.60;;;15.50;99.90;;;;;;4984280;28;20044;-85
2023/06/29 05:31:49;;;;;;;6.88;2.38;;;15.60;99.90;;;;;;4982557;28;20093;-85
2023/06/29 05:34:15;;;;;;;4.47;2.60;;;15.70;99.90;;;;;;4978893;28;21276;-86
2023/06/29 05:36:40;;;;;;;7.07;2.72;;;15.90;99.90;;;;;;4981105;28;20509;-86
2023/06/29 05:39:06;;;;;;;5.13;2.70;;;16.00;99.90;;;;;;4981662;28;20200;-84
2023/06/29 05:41:32;;;;;;;6.03;2.70;;;16.20;99.90;;;;;;4979023;28;20038;-87
2023/06/29 05:43:58;;;;;;;7.55;2.58;;;16.30;99.90;;;;;;4980513;28;20038;-84
2023/06/29 05:46:23;;;;;;;5.95;2.47;;;16.40;99.90;;;;;;4978680;28;20513;-87
2023/06/29 05:48:49;;;;;;;5.32;2.80;;;16.50;99.90;;;;;;4976642;28;20031;-83
2023/06/29 05:51:14;;;;;;;6.20;2.50;;;16.70;99.90;;;;;;4977645;28;20089;-82
2023/06/29 05:53:40;;;;;;;6.80;2.30;;;16.80;99.90;;;;;;4970545;28;20068;-83
2023/06/29 05:56:06;;;;;;;5.68;2.85;;;17.00;99.90;;;;;;4975739;28;21593;-83
2023/06/29 05:58:31;;;;;;;7.07;2.75;;;17.20;99.90;;;;;;4981281;28;20045;-82
2023/06/29 06:00:57;;;;;;;5.60;2.40;;;17.30;99.90;;;;;;4980097;28;20034;-83
2023/06/29 06:03:23;;;;;;;6.47;2.85;;;17.50;99.90;;;;;;4979552;28;20038;-83
2023/06/29 06:05:49;;;;;;;6.70;2.55;;;17.70;99.90;;;;;;4981500;28;20044;-83
2023/06/29 06:08:15;;;;;;;4.97;2.67;;;17.80;99.90;;;;;;4964162;28;20117;-83
2023/06/29 06:10:40;;;;;;;5.68;2.40;;;17.90;99.90;;;;;;4982046;28;20050;-81
2023/06/29 06:13:06;;;;;;;6.47;2.35;;;18.00;99.90;;;;;;4981939;28;20073;-81
2023/06/29 06:15:31;;;;;;;5.40;2.25;;;18.20;99.90;;;;;;4982076;28;20422;-82
2023/06/29 06:20:32;;;;;;;6.45;2.53;;;18.40;99.90;;;;;;5339337;22;20053;-81
2023/06/29 06:22:58;;;;;;;7.35;2.40;;;18.60;99.90;;;;;;4999519;28;20034;-81
2023/06/29 06:25:23;;;;;;;5.63;2.42;;;18.80;99.90;;;;;;5002903;28;20423;-81
2023/06/29 06:27:49;;;;;;;6.97;2.70;;;18.90;99.90;;;;;;5001390;28;20036;-81
2023/06/29 06:30:14;;;;;;;4.72;2.58;;;19.10;99.90;;;;;;5004551;28;20036;-81
2023/06/29 06:32:41;;;;;;;8.07;2.67;;;19.20;99.90;;;;;;5004431;28;20044;-81
2023/06/29 06:35:07;;;;;;;6.13;2.95;;;19.40;99.90;;;;;;5099385;23;20181;-83
2023/06/29 06:37:35;;;;;;;7.57;2.72;;;19.40;99.90;;;;;;4998353;28;20048;-83
2023/06/29 06:40:00;;;;;;;5.47;2.33;;;19.50;99.90;;;;;;4986368;28;20038;-82
2023/06/29 06:42:26;;;;;;;6.47;3.08;;;19.60;99.90;;;;;;4984302;28;20048;-81
2023/06/29 06:44:54;;;;;;;7.15;2.70;;;19.80;99.90;;;;;;4983666;28;20038;-81
2023/06/29 06:47:20;;;;;;;7.18;3.25;;;19.90;99.90;;;;;;4983970;28;20041;-82
2023/06/29 06:49:46;;;;;;;6.82;2.70;;;20.10;99.90;;;;;;4985784;28;20034;-79
2023/06/29 06:52:12;;;;;;;7.90;2.80;;;20.10;99.90;;;;;;4989594;28;20474;-80
2023/06/29 06:54:38;;;;;;;7.43;2.72;;;20.20;99.90;;;;;;4989047;28;20045;-79
2023/06/29 06:57:03;;;;;;;12.18;3.47;;;20.30;99.90;;;;;;4989627;28;20110;-80
2023/06/29 06:59:29;;;;;;;8.70;2.80;;;20.50;99.90;;;;;;4987671;28;20038;-79
2023/06/29 07:01:54;;;;;;;9.82;2.80;;;20.60;99.90;;;;;;4988119;28;20031;-80
2023/06/29 07:04:20;;;;;;;14.93;3.42;;;20.70;99.90;;;;;;4988395;28;20034;-79
2023/06/29 07:06:46;;;;;;;7.80;2.60;;;20.70;99.90;;;;;;4987320;28;20109;-79
2023/06/29 07:09:12;;;;;;;6.85;2.58;;;20.80;99.90;;;;;;4987309;28;20026;-79
2023/06/29 07:11:37;;;;;;;8.60;3.70;;;20.90;99.90;;;;;;4987177;28;21076;-79
2023/06/29 07:14:03;;;;;;;5.00;2.83;;;21.00;99.90;;;;;;4987644;28;20053;-79
2023/06/29 07:16:29;;;;;;;8.38;2.60;;;21.00;99.90;;;;;;4988391;28;20123;-79
2023/06/29 07:19:04;;;;;;;6.15;2.40;;;21.20;99.90;;;;;;4987712;28;20034;-80
2023/06/29 07:21:30;;;;;;;4.63;2.28;;;21.30;99.90;;;;;;4987235;28;20032;-79
2023/06/29 07:23:55;;;;;;;4.85;2.17;;;21.40;99.90;;;;;;4987882;28;20034;-80
2023/06/29 07:26:22;;;;;;;4.57;2.40;;;21.50;99.90;;;;;;4989753;28;20041;-79
2023/06/29 07:28:48;;;;;;;4.97;2.05;;;21.50;99.90;;;;;;4987409;28;20052;-80
2023/06/29 07:31:14;;;;;;;7.18;2.50;;;21.60;99.90;;;;;;4987361;28;21417;-79
2023/06/29 07:33:41;;;;;;;5.65;2.42;;;21.60;99.90;;;;;;4985731;28;20050;-80
2023/06/29 07:36:07;;;;;;;11.77;2.55;;;21.60;99.90;;;;;;4985593;28;20168;-80
2023/06/29 07:38:32;;;;;;;6.18;2.33;;;21.70;99.90;;;;;;4985553;28;20398;-79
2023/06/29 07:40:58;;;;;;;5.00;1.92;;;21.80;99.90;;;;;;4986112;28;20030;-79
2023/06/29 07:43:23;;;;;;;5.65;1.92;;;21.80;99.90;;;;;;4985692;28;20107;-79
2023/06/29 07:45:49;;;;;;;6.53;2.10;;;21.90;99.90;;;;;;4985209;28;20113;-80
2023/06/29 07:48:14;;;;;;;8.52;1.88;;;22.00;99.90;;;;;;4984334;28;20061;-79
2023/06/29 07:50:40;;;;;;;5.20;2.25;;;22.10;99.90;;;;;;4983770;28;20022;-80
2023/06/29 07:53:08;;;;;;;4.93;2.63;;;22.10;99.90;;;;;;4985468;28;20044;-79
2023/06/29 07:55:34;;;;;;;4.55;1.70;;;22.20;99.90;;;;;;4992954;28;20049;-80
2023/06/29 07:58:00;;;;;;;6.07;2.03;;;22.30;99.90;;;;;;4991831;28;20030;-81
2023/06/29 08:00:25;;;;;;;3.75;1.98;;;22.30;99.90;;;;;;4989874;28;20030;-81
2023/06/29 08:02:51;;;;;;;6.88;2.10;;;22.40;99.90;;;;;;4987878;28;20132;-82
2023/06/29 08:05:16;;;;;;;4.50;2.08;;;22.40;99.90;;;;;;4987890;28;20113;-81
2023/06/29 08:07:42;;;;;;;4.22;1.95;;;22.40;99.90;;;;;;4988521;28;20022;-82
2023/06/29 08:10:08;;;;;;;4.15;1.67;;;22.50;99.90;;;;;;4987313;28;21452;-81
2023/06/29 08:12:34;;;;;;;6.18;2.20;;;22.50;99.90;;;;;;4990781;28;20046;-81
2023/06/29 08:14:59;;;;;;;4.53;2.40;;;22.50;99.90;;;;;;4991611;28;20061;-81
2023/06/29 08:17:25;;;;;;;3.03;1.70;;;22.60;99.90;;;;;;4991187;28;20394;-81
2023/06/29 08:19:50;;;;;;;4.72;2.28;;;22.60;99.90;;;;;;4991112;28;20683;-81
2023/06/29 08:22:16;;;;;;;6.60;2.20;;;22.70;99.90;;;;;;4991748;28;20038;-82
2023/06/29 08:24:41;;;;;;;5.75;2.13;;;22.70;99.90;;;;;;4990079;28;20481;-81
2023/06/29 08:27:07;;;;;;;4.40;2.15;;;22.80;99.90;;;;;;4991454;28;20034;-82
2023/06/29 08:29:32;;;;;;;4.60;2.05;;;22.90;99.90;;;;;;4992219;28;20038;-82
2023/06/29 08:31:58;;;;;;;5.80;2.20;;;22.90;99.90;;;;;;4993031;28;20030;-82
2023/06/29 08:34:24;;;;;;;3.90;2.22;;;22.90;99.90;;;;;;4992712;28;20869;-82
2023/06/29 08:36:50;;;;;;;4.63;2.20;;;22.90;99.90;;;;;;4992433;28;20049;-81
2023/06/29 08:39:15;;;;;;;4.80;2.13;;;22.90;99.90;;;;;;4992864;28;20038;-82
2023/06/29 08:41:41;;;;;;;4.90;2.00;;;23.10;99.90;;;;;;4993910;28;20030;-82
2023/06/29 08:44:07;;;;;;;8.27;2.65;;;23.10;99.90;;;;;;4992895;28;20157;-81
2023/06/29 08:46:35;;;;;;;6.20;1.80;;;23.10;99.90;;;;;;4993650;28;20027;-81
2023/06/29 08:49:02;;;;;;;4.47;1.90;;;23.10;99.90;;;;;;4991625;28;20200;-81
2023/06/29 08:51:28;;;;;;;5.18;1.75;;;23.10;99.90;;;;;;4990954;28;20030;-81
2023/06/29 08:53:54;;;;;;;4.85;2.03;;;23.20;99.90;;;;;;4992377;28;20041;-82
2023/06/29 08:56:23;;;;;;;7.82;1.80;;;23.30;99.90;;;;;;4993317;28;20046;-81
2023/06/29 08:58:49;;;;;;;6.93;1.83;;;23.30;99.90;;;;;;4991654;28;20030;-81
2023/06/29 09:01:16;;;;;;;5.88;2.20;;;23.40;99.90;;;;;;4992709;28;20030;-81
2023/06/29 09:03:42;;;;;;;4.43;1.90;;;23.50;99.90;;;;;;4991715;28;20037;-81
2023/06/29 09:06:09;;;;;;;5.30;1.90;;;23.60;99.90;;;;;;4992039;28;20035;-82
2023/06/29 09:08:37;;;;;;;4.25;1.90;;;23.60;99.90;;;;;;4991546;28;20037;-81
2023/06/29 09:11:02;;;;;;;3.53;2.20;;;23.70;99.90;;;;;;4992630;28;20251;-82
2023/06/29 09:13:28;;;;;;;7.28;2.10;;;23.80;99.10;;;;;;4991750;28;20030;-82
2023/06/29 09:15:54;;;;;;;3.13;1.77;;;23.90;99.90;;;;;;4985177;28;20030;-82
2023/06/29 09:18:22;;;;;;;5.60;2.08;;;23.80;99.00;;;;;;4989625;28;20034;-81
2023/06/29 09:20:56;;;;;;;6.05;2.55;;;23.90;99.10;;;;;;4991513;28;20113;-82
2023/06/29 09:23:22;;;;;;;5.63;2.00;;;23.90;99.00;;;;;;4992473;28;20060;-82
2023/06/29 09:25:52;;;;;;;3.40;1.50;;;24.00;99.70;;;;;;4991676;28;20030;-81
2023/06/29 09:28:18;;;;;;;4.97;1.60;;;24.00;99.40;;;;;;4993616;28;20682;-82
2023/06/29 09:30:43;;;;;;;3.40;1.73;;;24.10;99.90;;;;;;4990561;28;20105;-82
2023/06/29 09:33:13;;;;;;;4.72;2.10;;;24.40;99.80;;;;;;4990996;28;20113;-82
2023/06/29 09:35:45;;;;;;;5.05;1.92;;;24.50;99.90;;;;;;4991390;28;20106;-81
2023/06/29 09:38:11;;;;;;;5.25;1.90;;;24.80;97.60;;;;;;4991105;28;20817;-83
2023/06/29 09:40:54;;;;;;;3.83;1.90;;;25.00;95.70;;;;;;4989064;28;20034;-82
2023/06/29 09:43:27;;;;;;;5.03;2.08;;;25.30;95.00;;;;;;4993623;28;20085;-81
2023/06/29 09:46:07;;;;;;;5.65;2.20;;;25.50;96.30;;;;;;4992574;28;20093;-81
2023/06/29 09:48:32;;;;;;;5.22;1.80;;;25.80;94.60;;;;;;4996446;28;20038;-81
2023/06/29 09:50:58;;;;;;;10.15;2.00;;;25.90;95.50;;;;;;4993643;28;20925;-82
2023/06/29 09:53:31;;;;;;;5.80;2.03;;;26.10;94.90;;;;;;4994758;28;20041;-81
2023/06/29 09:56:00;;;;;;;6.15;2.10;;;26.30;94.20;;;;;;4994275;28;20120;-82
2023/06/29 09:58:28;;;;;;;4.35;1.83;;;26.50;94.20;;;;;;4992352;28;20034;-83
2023/06/29 10:00:58;;;;;;;5.72;1.70;;;26.70;92.80;;;;;;4989970;28;20520;-81
2023/06/29 10:03:25;;;;;;;4.07;1.92;;;26.80;94.00;;;;;;4995098;28;21102;-81
2023/06/29 10:05:54;;;;;;;6.65;2.10;;;26.80;91.90;;;;;;4993319;28;20088;-82
2023/06/29 10:08:22;;;;;;;6.80;1.80;;;27.00;91.40;;;;;;4992671;28;20037;-82
2023/06/29 10:10:51;;;;;;;4.50;1.70;;;27.20;91.70;;;;;;4993073;28;20044;-81
2023/06/29 10:13:18;;;;;;;2.88;1.83;;;27.60;90.60;;;;;;4993934;28;20541;-80
2023/06/29 10:15:45;;;;;;;3.05;1.90;;;27.80;91.10;;;;;;4995897;28;20264;-82
2023/06/29 10:18:22;;;;;;;4.50;1.70;;;27.70;91.00;;;;;;4998320;28;20022;-82
2023/06/29 10:20:48;;;;;;;5.47;1.83;;;27.90;89.70;;;;;;4997059;28;20026;-82
2023/06/29 10:23:15;;;;;;;3.28;1.77;;;27.90;85.60;;;;;;4998328;28;20125;-82
2023/06/29 10:25:44;;;;;;;5.18;1.80;;;27.90;87.60;;;;;;4997084;28;21278;-83
2023/06/29 10:28:11;;;;;;;4.88;1.73;;;27.90;87.00;;;;;;4998967;28;20083;-81
2023/06/29 10:30:45;;;;;;;3.88;1.83;;;28.10;87.20;;;;;;4991780;28;20061;-82
2023/06/29 10:33:10;;;;;;;6.93;2.43;;;28.40;84.80;;;;;;4996677;28;20041;-82
2023/06/29 10:35:36;;;;;;;3.00;1.70;;;28.50;85.80;;;;;;4997179;28;20301;-83
2023/06/29 10:38:09;;;;;;;4.82;1.77;;;28.60;86.30;;;;;;4989751;28;20990;-83
2023/06/29 10:40:46;;;;;;;8.77;1.80;;;28.80;84.20;;;;;;4991763;28;20037;-82
2023/06/29 10:43:12;;;;;;;3.40;1.70;;;29.10;81.30;;;;;;4994089;28;20610;-81
2023/06/29 10:45:39;;;;;;;8.57;2.03;;;29.20;80.80;;;;;;4995637;28;20113;-83
2023/06/29 10:48:06;;;;;;;3.75;1.60;;;29.30;80.30;;;;;;4995823;28;20482;-84
2023/06/29 10:50:43;;;;;;;4.97;1.90;;;29.40;78.90;;;;;;4992098;28;20030;-84
2023/06/29 10:53:13;;;;;;;2.15;1.45;;;29.50;76.90;;;;;;4993615;28;20084;-81
2023/06/29 10:55:49;;;;;;;3.80;1.73;;;29.60;74.80;;;;;;4996179;28;20074;-83
2023/06/29 10:58:21;;;;;;;2.28;1.73;;;29.70;78.70;;;;;;4994578;28;20094;-83
2023/06/29 11:00:48;;;;;;;3.78;1.73;;;29.80;74.70;;;;;;4992100;28;20034;-81
2023/06/29 11:03:15;;;;;;;3.28;1.80;;;29.90;74.10;;;;;;4992372;28;20034;-82
2023/06/29 11:05:40;;;;;;;3.25;1.75;;;29.70;73.90;;;;;;4992692;28;20470;-81
2023/06/29 11:08:07;;;;;;;3.28;1.60;;;29.60;74.00;;;;;;4984122;28;20092;-80
2023/06/29 11:10:34;;;;;;;2.92;1.70;;;29.90;72.60;;;;;;4982073;28;21398;-81
2023/06/29 11:12:59;;;;;;;4.05;1.60;;;29.90;70.60;;;;;;4982049;28;20057;-81
2023/06/29 11:15:27;;;;;;;3.75;1.92;;;29.70;74.30;;;;;;4983297;28;20090;-81
2023/06/29 11:17:53;;;;;;;2.83;1.67;;;29.90;70.40;;;;;;4981785;28;20088;-79
2023/06/29 11:20:20;;;;;;;3.95;1.60;;;29.90;74.60;;;;;;4983718;28;20031;-81
2023/06/29 11:22:46;;;;;;;3.97;1.70;;;29.80;75.00;;;;;;4991964;28;20041;-80
2023/06/29 11:25:14;;;;;;;3.05;1.50;;;29.90;72.30;;;;;;4989878;28;20022;-80
2023/06/29 11:27:44;;;;;;;2.63;1.60;;;29.90;70.50;;;;;;4988702;28;20659;-81
2023/06/29 11:30:10;;;;;;;4.43;2.00;;;30.00;73.20;;;;;;4987693;28;20042;-81
2023/06/29 11:32:41;;;;;;;3.88;1.88;;;30.20;73.80;;;;;;4987583;28;20041;-81
2023/06/29 11:35:10;;;;;;;3.45;1.50;;;30.20;73.20;;;;;;4985829;28;20046;-82
2023/06/29 11:37:38;;;;;;;3.08;1.70;;;30.40;73.60;;;;;;4984647;28;20479;-82
2023/06/29 11:40:07;;;;;;;3.45;1.83;;;30.40;74.00;;;;;;4983538;28;20068;-82
2023/06/29 11:42:36;;;;;;;6.00;1.65;;;30.40;74.10;;;;;;4984667;28;20118;-81
2023/06/29 11:45:04;;;;;;;5.03;2.00;;;30.50;72.60;;;;;;4991253;28;20036;-82
2023/06/29 11:47:30;;;;;;;4.70;1.75;;;30.70;70.10;;;;;;4998227;28;21179;-82
2023/06/29 11:50:07;;;;;;;4.93;1.83;;;30.80;71.50;;;;;;4995061;28;20030;-82
2023/06/29 11:52:33;;;;;;;2.85;1.80;;;30.60;70.60;;;;;;4995704;28;20082;-81
2023/06/29 11:55:04;;;;;;;5.78;2.30;;;30.70;69.20;;;;;;4997267;28;20046;-82
2023/06/29 11:57:31;;;;;;;2.83;1.58;;;30.50;70.10;;;;;;4996309;28;20035;-82
2023/06/29 11:59:57;;;;;;;5.47;1.92;;;30.30;68.80;;;;;;4996710;28;20096;-82
2023/06/29 12:02:23;;;;;;;2.25;1.60;;;30.30;69.50;;;;;;4997703;28;20403;-81
2023/06/29 12:04:58;;;;;;;3.22;1.67;;;30.40;68.80;;;;;;4995423;28;20063;-82
2023/06/29 12:07:45;;;;;;;5.03;1.95;;;30.60;67.20;;;;;;4996939;28;20045;-82
2023/06/29 12:10:21;;;;;;;3.17;1.90;;;30.70;69.00;;;;;;4993405;28;20033;-82
2023/06/29 12:12:55;;;;;;;3.70;1.63;;;30.60;69.40;;;;;;4995787;28;20034;-82
2023/06/29 12:15:25;;;;;;;3.40;1.88;;;30.60;67.60;;;;;;4993123;28;20101;-77
2023/06/29 12:17:53;;;;;;;4.68;1.58;;;30.70;68.50;;;;;;4990909;28;20031;-79
2023/06/29 12:20:20;;;;;;;2.97;1.88;;;31.00;68.40;;;;;;4990743;28;20042;-79
2023/06/29 12:22:47;;;;;;;4.05;1.90;;;31.00;67.50;;;;;;4987917;28;21035;-80
2023/06/29 12:25:15;;;;;;;5.97;2.03;;;31.10;69.90;;;;;;4987866;28;20062;-80
2023/06/29 12:27:42;;;;;;;6.05;2.05;;;31.30;64.30;;;;;;4990802;28;20053;-79
2023/06/29 12:30:10;;;;;;;3.63;1.73;;;31.10;66.00;;;;;;4989487;28;20054;-79
2023/06/29 12:32:36;;;;;;;3.85;1.83;;;31.30;63.80;;;;;;4989649;28;20030;-78
2023/06/29 12:35:01;;;;;;;4.97;1.60;;;31.50;62.70;;;;;;4988276;28;20038;-79
2023/06/29 12:37:27;;;;;;;3.97;1.60;;;31.40;64.00;;;;;;4988631;28;20081;-79
2023/06/29 12:39:54;;;;;;;6.13;1.92;;;31.30;65.40;;;;;;4983235;28;21453;-72
2023/06/29 12:42:21;;;;;;;3.92;1.80;;;30.90;64.80;;;;;;4987675;28;20089;-80
2023/06/29 12:44:47;;;;;;;3.13;1.60;;;30.30;67.60;;;;;;4988462;28;20103;-79
2023/06/29 12:47:12;;;;;;;3.38;1.38;;;30.20;66.50;;;;;;4988577;28;20019;-80